^^
Grace C. Lehan Memorial Weather Station Historical Data
Daily Summary for December 28, 2021 Units:  Both    English   Metric
Daily Weekly Monthly Yearly
  High: Low: Average:
Temperature: 47.2 °F /  8.4 °C 32.3 °F /  0.2 °C 39.6 °F /  4.2 °C
Dew Point: 41.3 °F /  5.2 °C 29.2 °F /  -1.6 °C 34.9 °F /  1.6 °C
Humidity: 95% 69.8% 84%
Wind Speed: 7.5mph /  12.1km/h - 0.7mph /  1.1km/h
Wind Gust: 15mph /  24.1km/h - -
Wind- - West
Pressure: 29.89 in /  1012.1 hPa 29.76 in /  1007.7 hPa -
Precipitation: 0.09 in /  2.29 mm    
 
 
Tabular Data for December 28, 2021
Time Temperature Dew Point Pressure Wind Wind Speed Wind Gust Humidity Rainfall Rate (Hourly) solar
00:04 32.4 °F /  0.2 °C 29.2 °F /  -1.6 °C 29.84in /  1010.4hPa Calm   2mph /  3.2km/h 88% 0.00in /  0mm 0 W/m2
00:09 32.4 °F /  0.2 °C 29.3 °F /  -1.5 °C 29.83in /  1010hPa Calm     88% 0.00in /  0mm 0 W/m2
00:14 32.4 °F /  0.2 °C 29.2 °F /  -1.6 °C 29.83in /  1010hPa Calm     88% 0.00in /  0mm 0 W/m2
00:19 32.3 °F /  0.2 °C 29.2 °F /  -1.6 °C 29.82in /  1009.7hPa Calm     88% 0.00in /  0mm 0 W/m2
00:24 32.3 °F /  0.2 °C 29.2 °F /  -1.6 °C 29.82in /  1009.7hPa Calm     88% 0.00in /  0mm 0 W/m2
00:29 32.4 °F /  0.2 °C 29.4 °F /  -1.4 °C 29.83in /  1010hPa Calm     88.8% 0.00in /  0mm 0 W/m2
00:34 32.4 °F /  0.2 °C 29.5 °F /  -1.4 °C 29.83in /  1010hPa Calm     89% 0.00in /  0mm 0 W/m2
00:39 32.4 °F /  0.2 °C 29.5 °F /  -1.4 °C 29.82in /  1009.7hPa Calm     89% 0.00in /  0mm 0 W/m2
00:44 32.4 °F /  0.2 °C 29.6 °F /  -1.3 °C 29.82in /  1009.7hPa Calm     89% 0.00in /  0mm 0 W/m2
00:49 32.5 °F /  0.3 °C 29.6 °F /  -1.3 °C 29.81in /  1009.4hPa Calm     89% 0.00in /  0mm 0 W/m2
00:54 32.6 °F /  0.3 °C 29.7 °F /  -1.3 °C 29.81in /  1009.4hPa Calm     89% 0.00in /  0mm 0 W/m2
00:59 32.6 °F /  0.3 °C 29.7 °F /  -1.3 °C 29.81in /  1009.4hPa Calm     89% 0.00in /  0mm 0 W/m2
01:04 32.6 °F /  0.3 °C 29.8 °F /  -1.2 °C 29.82in /  1009.7hPa Calm     89.4% 0.00in /  0mm 0 W/m2
01:09 32.6 °F /  0.3 °C 30 °F /  -1.1 °C 29.82in /  1009.7hPa Calm     90% 0.00in /  0mm 0 W/m2
01:14 32.7 °F /  0.4 °C 30.1 °F /  -1.1 °C 29.81in /  1009.4hPa Calm     90% 0.00in /  0mm 0 W/m2
01:19 32.7 °F /  0.4 °C 30.1 °F /  -1.1 °C 29.80in /  1009hPa Calm     90% 0.00in /  0mm 0 W/m2
01:24 32.7 °F /  0.4 °C 30.1 °F /  -1.1 °C 29.80in /  1009hPa Calm     90% 0.00in /  0mm 0 W/m2
01:29 32.6 °F /  0.3 °C 30 °F /  -1.1 °C 29.80in /  1009hPa Calm     90% 0.00in /  0mm 0 W/m2
01:34 32.6 °F /  0.3 °C 30 °F /  -1.1 °C 29.80in /  1009hPa Calm     90% 0.00in /  0mm 0 W/m2
01:39 32.6 °F /  0.3 °C 30 °F /  -1.1 °C 29.80in /  1009hPa Calm     90% 0.00in /  0mm 0 W/m2
01:44 32.6 °F /  0.3 °C 30 °F /  -1.1 °C 29.80in /  1009hPa Calm     90% 0.00in /  0mm 0 W/m2
01:49 32.7 °F /  0.4 °C 30.1 °F /  -1.1 °C 29.80in /  1009hPa Calm     90% 0.00in /  0mm 0 W/m2
01:54 32.7 °F /  0.4 °C 30.1 °F /  -1.1 °C 29.80in /  1009hPa Calm     90% 0.00in /  0mm 0 W/m2
01:59 32.8 °F /  0.4 °C 30.2 °F /  -1 °C 29.80in /  1009hPa Calm     90% 0.00in /  0mm 0 W/m2
02:04 32.8 °F /  0.4 °C 30.2 °F /  -1 °C 29.79in /  1008.7hPa Calm     90% 0.00in /  0mm 0 W/m2
02:09 32.8 °F /  0.4 °C 30.2 °F /  -1 °C 29.80in /  1009hPa Calm     90.1% 0.00in /  0mm 0 W/m2
02:14 32.8 °F /  0.4 °C 30.5 °F /  -0.8 °C 29.80in /  1009hPa Calm     91% 0.00in /  0mm 0 W/m2
02:19 32.9 °F /  0.5 °C 30.6 °F /  -0.8 °C 29.80in /  1009hPa Calm     91% 0.00in /  0mm 0 W/m2
02:24 32.9 °F /  0.5 °C 30.6 °F /  -0.8 °C 29.80in /  1009hPa Calm     91% 0.00in /  0mm 0 W/m2
02:25 33 °F /  0.6 °C 30.7 °F /  -0.7 °C 29.80in /  1009hPa Calm     91% 0.00in /  0mm 0 W/m2
02:30 33.1 °F /  0.6 °C 30.8 °F /  -0.7 °C 29.80in /  1009hPa Calm   2mph /  3.2km/h 91% 0.00in /  0mm 0 W/m2
03:00 33.2 °F /  0.7 °C 31.1 °F /  -0.5 °C 29.79in /  1008.7hPa Calm   3mph /  4.8km/h 92% 0.00in /  0mm 0 W/m2
03:30 33.2 °F /  0.7 °C 31.1 °F /  -0.5 °C 29.80in /  1009hPa NNE 1mph /  1.6km/h 4mph /  6.4km/h 92% 0.00in /  0mm 0 W/m2
04:04 33.1 °F /  0.6 °C 31.3 °F /  -0.4 °C 29.80in /  1009hPa NNE 0.1mph /  0.2km/h 4mph /  6.4km/h 92.9% 0.00in /  0mm 0 W/m2
04:09 33.1 °F /  0.6 °C 31.3 °F /  -0.4 °C 29.78in /  1008.4hPa Calm   1mph /  1.6km/h 93% 0.00in /  0mm 0 W/m2
04:14 33.1 °F /  0.6 °C 31.3 °F /  -0.4 °C 29.78in /  1008.4hPa Calm   1mph /  1.6km/h 93% 0.00in /  0mm 0 W/m2
04:19 33.1 °F /  0.6 °C 31.3 °F /  -0.4 °C 29.78in /  1008.4hPa Calm   1mph /  1.6km/h 93% 0.00in /  0mm 0 W/m2
04:24 33.2 °F /  0.7 °C 31.4 °F /  -0.3 °C 29.78in /  1008.4hPa Calm   1mph /  1.6km/h 93% 0.00in /  0mm 0 W/m2
04:29 33.2 °F /  0.7 °C 31.4 °F /  -0.3 °C 29.78in /  1008.4hPa Calm   1mph /  1.6km/h 93% 0.00in /  0mm 0 W/m2
04:34 33.2 °F /  0.7 °C 31.4 °F /  -0.3 °C 29.78in /  1008.4hPa Calm   1mph /  1.6km/h 93% 0.00in /  0mm 0 W/m2
04:39 33.2 °F /  0.7 °C 31.4 °F /  -0.3 °C 29.78in /  1008.4hPa Calm     93% 0.00in /  0mm 0 W/m2
04:44 33.2 °F /  0.7 °C 31.4 °F /  -0.3 °C 29.78in /  1008.4hPa Calm     93% 0.00in /  0mm 0 W/m2
04:49 33.2 °F /  0.7 °C 31.4 °F /  -0.3 °C 29.78in /  1008.4hPa Calm     93% 0.00in /  0mm 0 W/m2
04:54 33.3 °F /  0.7 °C 31.5 °F /  -0.3 °C 29.78in /  1008.4hPa Calm     93% 0.00in /  0mm 0 W/m2
04:59 33.3 °F /  0.7 °C 31.5 °F /  -0.3 °C 29.78in /  1008.4hPa Calm     93% 0.00in /  0mm 0 W/m2
05:04 33.4 °F /  0.8 °C 31.6 °F /  -0.2 °C 29.78in /  1008.4hPa Calm     93% 0.00in /  0mm 0 W/m2
05:09 33.4 °F /  0.8 °C 31.6 °F /  -0.2 °C 29.78in /  1008.4hPa Calm     93% 0.00in /  0mm 0 W/m2
05:14 33.4 °F /  0.8 °C 31.6 °F /  -0.2 °C 29.78in /  1008.4hPa Calm     93% 0.00in /  0mm 0 W/m2
05:19 33.4 °F /  0.8 °C 31.6 °F /  -0.2 °C 29.78in /  1008.4hPa Calm     93% 0.00in /  0mm 0 W/m2
05:24 33.4 °F /  0.8 °C 31.6 °F /  -0.2 °C 29.78in /  1008.4hPa Calm     93% 0.00in /  0mm 0 W/m2
05:29 33.4 °F /  0.8 °C 31.6 °F /  -0.2 °C 29.78in /  1008.4hPa Calm     93% 0.00in /  0mm 0 W/m2
05:34 33.5 °F /  0.8 °C 31.9 °F /  -0.1 °C 29.78in /  1008.4hPa Calm     93.6% 0.00in /  0mm 0 W/m2
05:39 33.6 °F /  0.9 °C 32 °F /  0 °C 29.78in /  1008.4hPa Calm     94% 0.00in /  0mm 0 W/m2
05:44 33.6 °F /  0.9 °C 32.1 °F /  0.1 °C 29.78in /  1008.4hPa Calm     94% 0.00in /  0mm 0 W/m2
05:49 33.6 °F /  0.9 °C 32.1 °F /  0.1 °C 29.77in /  1008hPa Calm     94% 0.00in /  0mm 0 W/m2
05:54 33.6 °F /  0.9 °C 32.1 °F /  0.1 °C 29.77in /  1008hPa Calm     94% 0.00in /  0mm 0 W/m2
05:59 33.6 °F /  0.9 °C 32.1 °F /  0.1 °C 29.77in /  1008hPa Calm     94% 0.00in /  0mm 0 W/m2
06:04 33.6 °F /  0.9 °C 32.1 °F /  0.1 °C 29.77in /  1008hPa Calm     94% 0.00in /  0mm 0 W/m2
06:09 33.6 °F /  0.9 °C 32.1 °F /  0.1 °C 29.77in /  1008hPa Calm     94% 0.00in /  0mm 0 W/m2
06:14 33.7 °F /  0.9 °C 32.2 °F /  0.1 °C 29.77in /  1008hPa Calm     94% 0.00in /  0mm 0 W/m2
06:19 33.7 °F /  0.9 °C 32.2 °F /  0.1 °C 29.78in /  1008.4hPa Calm     94% 0.00in /  0mm 0 W/m2
06:24 33.7 °F /  0.9 °C 32.2 °F /  0.1 °C 29.77in /  1008hPa Calm     94% 0.00in /  0mm 0 W/m2
06:29 33.7 °F /  0.9 °C 32.2 °F /  0.1 °C 29.77in /  1008hPa Calm     94% 0.00in /  0mm 0 W/m2
06:34 33.7 °F /  0.9 °C 32.2 °F /  0.1 °C 29.77in /  1008hPa Calm     94% 0.00in /  0mm 0 W/m2
06:39 33.7 °F /  0.9 °C 32.2 °F /  0.1 °C 29.78in /  1008.4hPa Calm     94% 0.00in /  0mm 0 W/m2
06:44 33.7 °F /  0.9 °C 32.2 °F /  0.1 °C 29.78in /  1008.4hPa Calm     94% 0.00in /  0mm 0 W/m2
06:49 33.7 °F /  0.9 °C 32.2 °F /  0.1 °C 29.78in /  1008.4hPa Calm     94% 0.00in /  0mm 0 W/m2
06:54 33.7 °F /  0.9 °C 32.2 °F /  0.1 °C 29.78in /  1008.4hPa Calm     94% 0.00in /  0mm 0 W/m2
06:59 33.7 °F /  0.9 °C 32.2 °F /  0.1 °C 29.79in /  1008.7hPa Calm     94% 0.00in /  0mm 0 W/m2
07:04 33.7 °F /  0.9 °C 32.2 °F /  0.1 °C 29.79in /  1008.7hPa Calm     94% 0.00in /  0mm 0 W/m2
07:09 33.7 °F /  0.9 °C 32.2 °F /  0.1 °C 29.80in /  1009hPa Calm     94% 0.00in /  0mm 0 W/m2
07:14 33.7 °F /  0.9 °C 32.2 °F /  0.1 °C 29.81in /  1009.4hPa Calm     94% 0.00in /  0mm 0 W/m2
07:19 33.8 °F /  1 °C 32.3 °F /  0.2 °C 29.81in /  1009.4hPa Calm     94% 0.00in /  0mm 0 W/m2
07:24 33.8 °F /  1 °C 32.3 °F /  0.2 °C 29.81in /  1009.4hPa Calm     94% 0.00in /  0mm 0 W/m2
07:29 33.8 °F /  1 °C 32.3 °F /  0.2 °C 29.81in /  1009.4hPa Calm     94% 0.00in /  0mm 0 W/m2
07:34 33.8 °F /  1 °C 32.3 °F /  0.2 °C 29.81in /  1009.4hPa Calm     94% 0.00in /  0mm 0 W/m2
07:39 33.8 °F /  1 °C 32.3 °F /  0.2 °C 29.81in /  1009.4hPa Calm     94% 0.00in /  0mm 0 W/m2
07:44 33.8 °F /  1 °C 32.3 °F /  0.2 °C 29.80in /  1009hPa Calm     94% 0.00in /  0mm 9 W/m2
07:49 33.8 °F /  1 °C 32.3 °F /  0.2 °C 29.80in /  1009hPa Calm     94% 0.00in /  0mm 12 W/m2
07:54 33.8 °F /  1 °C 32.3 °F /  0.2 °C 29.79in /  1008.7hPa Calm     94% 0.00in /  0mm 18 W/m2
07:59 33.8 °F /  1 °C 32.3 °F /  0.2 °C 29.80in /  1009hPa Calm     94% 0.00in /  0mm 18 W/m2
08:04 33.9 °F /  1.1 °C 32.4 °F /  0.2 °C 29.80in /  1009hPa Calm     94% 0.01in /  0.25mm 21 W/m2
08:09 34 °F /  1.1 °C 32.4 °F /  0.2 °C 29.80in /  1009hPa Calm     94% 0.01in /  0.25mm 25 W/m2
08:14 34.1 °F /  1.2 °C 32.6 °F /  0.3 °C 29.81in /  1009.4hPa Calm     94.2% 0.01in /  0.25mm 28 W/m2
08:19 34.2 °F /  1.2 °C 32.9 °F /  0.5 °C 29.81in /  1009.4hPa Calm     95% 0.01in /  0.25mm 30 W/m2
08:24 34.2 °F /  1.2 °C 32.9 °F /  0.5 °C 29.81in /  1009.4hPa Calm     95% 0.01in /  0.25mm 35 W/m2
08:29 34.3 °F /  1.3 °C 33 °F /  0.6 °C 29.81in /  1009.4hPa Calm     95% 0.02in /  0.51mm 33 W/m2
08:34 34.3 °F /  1.3 °C 33 °F /  0.6 °C 29.82in /  1009.7hPa Calm   1mph /  1.6km/h 95% 0.02in /  0.51mm 28 W/m2
08:39 34.4 °F /  1.3 °C 33.1 °F /  0.6 °C 29.82in /  1009.7hPa Calm   1mph /  1.6km/h 95% 0.02in /  0.51mm 33 W/m2
08:44 34.4 °F /  1.3 °C 33.2 °F /  0.7 °C 29.82in /  1009.7hPa Calm   1mph /  1.6km/h 95% 0.02in /  0.51mm 51 W/m2
08:49 34.5 °F /  1.4 °C 33.2 °F /  0.7 °C 29.81in /  1009.4hPa Calm   1mph /  1.6km/h 95% 0.02in /  0.51mm 54 W/m2
08:54 34.5 °F /  1.4 °C 33.2 °F /  0.7 °C 29.81in /  1009.4hPa Calm   1mph /  1.6km/h 95% 0.02in /  0.51mm 65 W/m2
08:59 34.6 °F /  1.4 °C 33.3 °F /  0.7 °C 29.81in /  1009.4hPa Calm   1mph /  1.6km/h 95% 0.02in /  0.51mm 69 W/m2
09:04 34.7 °F /  1.5 °C 33.4 °F /  0.8 °C 29.81in /  1009.4hPa Calm   1mph /  1.6km/h 95% 0.02in /  0.51mm 156 W/m2
09:09 34.9 °F /  1.6 °C 33.6 °F /  0.9 °C 29.81in /  1009.4hPa Calm     95% 0.00in /  0mm 156 W/m2
09:14 35.2 °F /  1.8 °C 33.9 °F /  1.1 °C 29.81in /  1009.4hPa Calm     95% 0.00in /  0mm 253 W/m2
09:19 35.7 °F /  2.1 °C 34.4 °F /  1.3 °C 29.82in /  1009.7hPa Calm     95% 0.00in /  0mm 267 W/m2
09:24 36.2 °F /  2.3 °C 34.9 °F /  1.6 °C 29.82in /  1009.7hPa Calm     95% 0.00in /  0mm 107 W/m2
09:29 36.5 °F /  2.5 °C 35.2 °F /  1.8 °C 29.82in /  1009.7hPa Calm     95% 0.00in /  0mm 153 W/m2
09:34 36.8 °F /  2.7 °C 35.5 °F /  1.9 °C 29.82in /  1009.7hPa Calm     95% 0.00in /  0mm 153 W/m2
09:39 37 °F /  2.8 °C 35.7 °F /  2.1 °C 29.82in /  1009.7hPa Calm     95% 0.00in /  0mm 160 W/m2
09:44 37.2 °F /  2.9 °C 35.9 °F /  2.2 °C 29.82in /  1009.7hPa Calm     95% 0.00in /  0mm 155 W/m2
09:49 37.3 °F /  2.9 °C 36 °F /  2.2 °C 29.82in /  1009.7hPa Calm     95% 0.00in /  0mm 158 W/m2
09:54 37.5 °F /  3.1 °C 36.2 °F /  2.3 °C 29.82in /  1009.7hPa Calm     95% 0.00in /  0mm 83 W/m2
09:59 37.8 °F /  3.2 °C 36.5 °F /  2.5 °C 29.82in /  1009.7hPa Calm   1mph /  1.6km/h 95% 0.00in /  0mm 125 W/m2
10:04 38.2 °F /  3.4 °C 36.9 °F /  2.7 °C 29.81in /  1009.4hPa Calm   1mph /  1.6km/h 95% 0.00in /  0mm 148 W/m2
10:09 38.6 °F /  3.7 °C 37.3 °F /  2.9 °C 29.81in /  1009.4hPa Calm     95% 0.00in /  0mm 185 W/m2
10:14 39.2 °F /  4 °C 37.9 °F /  3.3 °C 29.81in /  1009.4hPa NNE 0.6mph /  1km/h 4mph /  6.4km/h 95% 0.01in /  0.25mm 232 W/m2
10:19 40 °F /  4.4 °C 38.7 °F /  3.7 °C 29.81in /  1009.4hPa North 1.1mph /  1.8km/h 5mph /  8km/h 95% 0.01in /  0.25mm 311 W/m2
10:24 40.9 °F /  4.9 °C 39.6 °F /  4.2 °C 29.82in /  1009.7hPa NW 1.5mph /  2.4km/h 6mph /  9.7km/h 95% 0.01in /  0.25mm 381 W/m2
10:29 42 °F /  5.6 °C 40.7 °F /  4.8 °C 29.82in /  1009.7hPa WNW 3.6mph /  5.8km/h 12mph /  19.3km/h 95% 0.01in /  0.25mm 406 W/m2
10:34 42.7 °F /  5.9 °C 41.3 °F /  5.2 °C 29.82in /  1009.7hPa WNW 5.3mph /  8.5km/h 12mph /  19.3km/h 94.7% 0.01in /  0.25mm 424 W/m2
10:39 43.4 °F /  6.3 °C 41.3 °F /  5.2 °C 29.81in /  1009.4hPa WNW 4.1mph /  6.6km/h 12mph /  19.3km/h 92.3% 0.02in /  0.51mm 415 W/m2
10:44 43.8 °F /  6.6 °C 41 °F /  5 °C 29.81in /  1009.4hPa WNW 3.9mph /  6.3km/h 12mph /  19.3km/h 89.6% 0.02in /  0.51mm 366 W/m2
10:49 44.1 °F /  6.7 °C 40.9 °F /  4.9 °C 29.81in /  1009.4hPa WNW 4.3mph /  6.9km/h 12mph /  19.3km/h 88.2% 0.02in /  0.51mm 322 W/m2
10:54 44.4 °F /  6.9 °C 40.7 °F /  4.8 °C 29.81in /  1009.4hPa WNW 2.7mph /  4.3km/h 12mph /  19.3km/h 87% 0.02in /  0.51mm 227 W/m2
10:59 44.6 °F /  7 °C 40.9 °F /  4.9 °C 29.81in /  1009.4hPa WNW 4.4mph /  7.1km/h 12mph /  19.3km/h 86.6% 0.02in /  0.51mm 160 W/m2
11:04 44.9 °F /  7.2 °C 40.9 °F /  4.9 °C 29.81in /  1009.4hPa West 2.5mph /  4km/h 12mph /  19.3km/h 86% 0.02in /  0.51mm 130 W/m2
11:09 45 °F /  7.2 °C 40.8 °F /  4.9 °C 29.81in /  1009.4hPa West 3.5mph /  5.6km/h 9mph /  14.5km/h 85.2% 0.02in /  0.51mm 176 W/m2
11:14 45 °F /  7.2 °C 40.6 °F /  4.8 °C 29.81in /  1009.4hPa WNW 4.7mph /  7.6km/h 11mph /  17.7km/h 84.4% 0.02in /  0.51mm 121 W/m2
11:19 45 °F /  7.2 °C 40.4 °F /  4.7 °C 29.80in /  1009hPa WNW 2.5mph /  4km/h 11mph /  17.7km/h 84% 0.02in /  0.51mm 105 W/m2
11:24 45.1 °F /  7.3 °C 40.5 °F /  4.7 °C 29.80in /  1009hPa West 1.8mph /  2.9km/h 11mph /  17.7km/h 84% 0.02in /  0.51mm 109 W/m2
11:29 45.3 °F /  7.4 °C 40.8 °F /  4.9 °C 29.80in /  1009hPa WNW 3.2mph /  5.1km/h 11mph /  17.7km/h 84.1% 0.02in /  0.51mm 151 W/m2
11:34 45.5 °F /  7.5 °C 40.9 °F /  4.9 °C 29.81in /  1009.4hPa NW 2.6mph /  4.2km/h 11mph /  17.7km/h 83.8% 0.02in /  0.51mm 193 W/m2
11:39 45.6 °F /  7.6 °C 40.6 °F /  4.8 °C 29.80in /  1009hPa NW 5.3mph /  8.5km/h 13mph /  20.9km/h 82.5% 0.01in /  0.25mm 165 W/m2
11:44 45.6 °F /  7.6 °C 39.9 °F /  4.4 °C 29.80in /  1009hPa WNW 7.5mph /  12.1km/h 15mph /  24.1km/h 80.1% 0.01in /  0.25mm 188 W/m2
11:49 45.5 °F /  7.5 °C 39.4 °F /  4.1 °C 29.80in /  1009hPa NW 6.2mph /  10km/h 15mph /  24.1km/h 79% 0.01in /  0.25mm 137 W/m2
11:54 45.4 °F /  7.4 °C 39.2 °F /  4 °C 29.79in /  1008.7hPa WNW 3.9mph /  6.3km/h 15mph /  24.1km/h 78.7% 0.01in /  0.25mm 111 W/m2
11:59 45.5 °F /  7.5 °C 39.2 °F /  4 °C 29.79in /  1008.7hPa WNW 4.4mph /  7.1km/h 15mph /  24.1km/h 78.4% 0.01in /  0.25mm 79 W/m2
12:00 45.5 °F /  7.5 °C 39.1 °F /  3.9 °C 29.78in /  1008.4hPa WNW 2mph /  3.2km/h 15mph /  24.1km/h 78% 0.01in /  0.25mm 56 W/m2
12:09 45.5 °F /  7.5 °C 39.1 °F /  3.9 °C 29.78in /  1008.4hPa West 2.4mph /  3.9km/h 7mph /  11.3km/h 78% 0.01in /  0.25mm 123 W/m2
12:14 45.8 °F /  7.7 °C 39.6 °F /  4.2 °C 29.78in /  1008.4hPa WSW 1.3mph /  2.1km/h 7mph /  11.3km/h 78.8% 0.01in /  0.25mm 450 W/m2
12:19 46.3 °F /  7.9 °C 39.8 °F /  4.3 °C 29.78in /  1008.4hPa West 2.6mph /  4.2km/h 7mph /  11.3km/h 78.2% 0.01in /  0.25mm 446 W/m2
12:24 46.7 °F /  8.2 °C 39.7 °F /  4.3 °C 29.77in /  1008hPa West 3.6mph /  5.8km/h 10mph /  16.1km/h 76.6% 0.01in /  0.25mm 411 W/m2
12:29 46.8 °F /  8.2 °C 39.2 °F /  4 °C 29.77in /  1008hPa WNW 5.5mph /  8.9km/h 14mph /  22.5km/h 74.7% 0.01in /  0.25mm 67 W/m2
12:34 46.6 °F /  8.1 °C 38.8 °F /  3.8 °C 29.77in /  1008hPa NW 4.3mph /  6.9km/h 14mph /  22.5km/h 74% 0.01in /  0.25mm 90 W/m2
12:39 46.5 °F /  8.1 °C 38.7 °F /  3.7 °C 29.77in /  1008hPa WNW 4.4mph /  7.1km/h 11mph /  17.7km/h 74% 0.00in /  0mm 243 W/m2
12:44 46.6 °F /  8.1 °C 38.7 °F /  3.7 °C 29.77in /  1008hPa WNW 6mph /  9.7km/h 13mph /  20.9km/h 73.6% 0.00in /  0mm 445 W/m2
12:49 46.8 °F /  8.2 °C 38.6 °F /  3.7 °C 29.77in /  1008hPa WNW 3.6mph /  5.8km/h 13mph /  20.9km/h 73% 0.00in /  0mm 445 W/m2
12:54 47.1 °F /  8.4 °C 38.4 °F /  3.6 °C 29.77in /  1008hPa WNW 4.5mph /  7.2km/h 13mph /  20.9km/h 71.5% 0.00in /  0mm 216 W/m2
12:59 47.2 °F /  8.4 °C 38.3 °F /  3.5 °C 29.76in /  1007.7hPa WNW 2mph /  3.2km/h 13mph /  20.9km/h 71% 0.00in /  0mm 97 W/m2
13:04 47.1 °F /  8.4 °C 38.2 °F /  3.4 °C 29.76in /  1007.7hPa WNW 3mph /  4.8km/h 13mph /  20.9km/h 70.9% 0.00in /  0mm 77 W/m2
13:09 46.8 °F /  8.2 °C 37.8 °F /  3.2 °C 29.77in /  1008hPa WNW 1.2mph /  1.9km/h 10mph /  16.1km/h 70.7% 0.00in /  0mm 95 W/m2
13:14 46.5 °F /  8.1 °C 37.6 °F /  3.1 °C 29.77in /  1008hPa WNW 4.4mph /  7.1km/h 10mph /  16.1km/h 71% 0.00in /  0mm 100 W/m2
13:19 46.1 °F /  7.8 °C 37.2 °F /  2.9 °C 29.77in /  1008hPa WNW 4.8mph /  7.7km/h 11mph /  17.7km/h 71% 0.00in /  0mm 185 W/m2
13:24 45.8 °F /  7.7 °C 37 °F /  2.8 °C 29.77in /  1008hPa WNW 3.2mph /  5.1km/h 11mph /  17.7km/h 71% 0.00in /  0mm 185 W/m2
13:29 45.8 °F /  7.7 °C 37.3 °F /  2.9 °C 29.76in /  1007.7hPa WNW 3.4mph /  5.5km/h 11mph /  17.7km/h 72% 0.00in /  0mm 251 W/m2
13:34 45.8 °F /  7.7 °C 37.2 °F /  2.9 °C 29.76in /  1007.7hPa WNW 3mph /  4.8km/h 11mph /  17.7km/h 71.8% 0.00in /  0mm 121 W/m2
13:39 45.8 °F /  7.7 °C 37.1 °F /  2.8 °C 29.76in /  1007.7hPa WNW 1.6mph /  2.6km/h 11mph /  17.7km/h 71.5% 0.00in /  0mm 135 W/m2
13:44 45.9 °F /  7.7 °C 37.4 °F /  3 °C 29.76in /  1007.7hPa WNW 0.6mph /  1km/h 11mph /  17.7km/h 72% 0.00in /  0mm 137 W/m2
13:49 46 °F /  7.8 °C 37.5 °F /  3.1 °C 29.76in /  1007.7hPa Calm   11mph /  17.7km/h 72% 0.00in /  0mm 141 W/m2
13:54 46.1 °F /  7.8 °C 37.5 °F /  3.1 °C 29.76in /  1007.7hPa West 2mph /  3.2km/h 11mph /  17.7km/h 71.9% 0.00in /  0mm 192 W/m2
13:59 46.2 °F /  7.9 °C 37.4 °F /  3 °C 29.76in /  1007.7hPa WSW 1.9mph /  3.1km/h 11mph /  17.7km/h 71% 0.00in /  0mm 167 W/m2
14:04 46.5 °F /  8.1 °C 37.8 °F /  3.2 °C 29.77in /  1008hPa WSW 1.1mph /  1.8km/h 11mph /  17.7km/h 71.6% 0.00in /  0mm 163 W/m2
14:09 46.7 °F /  8.2 °C 37.8 °F /  3.2 °C 29.77in /  1008hPa WSW 1.9mph /  3.1km/h 6mph /  9.7km/h 71.2% 0.00in /  0mm 134 W/m2
14:14 46.7 °F /  8.2 °C 37.4 °F /  3 °C 29.77in /  1008hPa West 1.7mph /  2.7km/h 8mph /  12.9km/h 70% 0.00in /  0mm 81 W/m2
14:19 46.5 °F /  8.1 °C 37.2 °F /  2.9 °C 29.76in /  1007.7hPa West 1.3mph /  2.1km/h 8mph /  12.9km/h 69.8% 0.00in /  0mm 91 W/m2
14:24 46.4 °F /  8 °C 37.1 °F /  2.8 °C 29.76in /  1007.7hPa West 0.9mph /  1.4km/h 8mph /  12.9km/h 70% 0.00in /  0mm 98 W/m2
14:29 46.3 °F /  7.9 °C 37.4 °F /  3 °C 29.76in /  1007.7hPa West 1.3mph /  2.1km/h 8mph /  12.9km/h 71% 0.00in /  0mm 98 W/m2
14:34 46.2 °F /  7.9 °C 37.2 °F /  2.9 °C 29.77in /  1008hPa West 0.3mph /  0.5km/h 8mph /  12.9km/h 70.6% 0.00in /  0mm 98 W/m2
14:39 46.2 °F /  7.9 °C 37.5 °F /  3.1 °C 29.78in /  1008.4hPa West 0.4mph /  0.6km/h 5mph /  8km/h 71.3% 0.00in /  0mm 95 W/m2
14:44 46.2 °F /  7.9 °C 37.4 °F /  3 °C 29.78in /  1008.4hPa West 0.5mph /  0.8km/h 5mph /  8km/h 71.2% 0.00in /  0mm 95 W/m2
14:49 46.2 °F /  7.9 °C 37.4 °F /  3 °C 29.78in /  1008.4hPa West 1.9mph /  3.1km/h 7mph /  11.3km/h 71.1% 0.00in /  0mm 90 W/m2
14:54 46.2 °F /  7.9 °C 37.3 °F /  2.9 °C 29.78in /  1008.4hPa West 0.1mph /  0.2km/h 7mph /  11.3km/h 71% 0.00in /  0mm 93 W/m2
14:59 46.2 °F /  7.9 °C 37.3 °F /  2.9 °C 29.78in /  1008.4hPa West 0.5mph /  0.8km/h 7mph /  11.3km/h 71% 0.00in /  0mm 93 W/m2
15:04 46.2 °F /  7.9 °C 37.6 °F /  3.1 °C 29.78in /  1008.4hPa West 0.7mph /  1.1km/h 7mph /  11.3km/h 71.8% 0.00in /  0mm 72 W/m2
15:09 46.2 °F /  7.9 °C 37.4 °F /  3 °C 29.77in /  1008hPa West 0.2mph /  0.3km/h 5mph /  8km/h 71.1% 0.00in /  0mm 76 W/m2
15:14 46.2 °F /  7.9 °C 37.3 °F /  2.9 °C 29.77in /  1008hPa West 0.3mph /  0.5km/h 5mph /  8km/h 71% 0.00in /  0mm 49 W/m2
15:19 46.1 °F /  7.8 °C 37.2 °F /  2.9 °C 29.77in /  1008hPa West 0.4mph /  0.6km/h 5mph /  8km/h 71% 0.00in /  0mm 47 W/m2
15:24 46 °F /  7.8 °C 37.1 °F /  2.8 °C 29.77in /  1008hPa Calm   5mph /  8km/h 71% 0.00in /  0mm 47 W/m2
15:29 45.9 °F /  7.7 °C 37.1 °F /  2.8 °C 29.78in /  1008.4hPa Calm   5mph /  8km/h 71.2% 0.00in /  0mm 40 W/m2
15:34 45.9 °F /  7.7 °C 37.1 °F /  2.8 °C 29.78in /  1008.4hPa Calm   5mph /  8km/h 71.2% 0.00in /  0mm 33 W/m2
15:39 45.8 °F /  7.7 °C 37.1 °F /  2.8 °C 29.78in /  1008.4hPa Calm     71.5% 0.00in /  0mm 28 W/m2
15:44 45.7 °F /  7.6 °C 37.2 °F /  2.9 °C 29.78in /  1008.4hPa Calm     71.8% 0.00in /  0mm 26 W/m2
15:49 45.6 °F /  7.6 °C 36.9 °F /  2.7 °C 29.77in /  1008hPa Calm   1mph /  1.6km/h 71.5% 0.00in /  0mm 19 W/m2
15:54 45.5 °F /  7.5 °C 37 °F /  2.8 °C 29.78in /  1008.4hPa West 0.2mph /  0.3km/h 2mph /  3.2km/h 72% 0.00in /  0mm 28 W/m2
15:59 45.4 °F /  7.4 °C 36.9 °F /  2.7 °C 29.78in /  1008.4hPa Calm   2mph /  3.2km/h 72% 0.00in /  0mm 28 W/m2
16:00 45.4 °F /  7.4 °C 36.9 °F /  2.7 °C 29.78in /  1008.4hPa Calm   2mph /  3.2km/h 72% 0.00in /  0mm 21 W/m2
16:09 45.3 °F /  7.4 °C 36.8 °F /  2.7 °C 29.79in /  1008.7hPa Calm     72% 0.00in /  0mm 11 W/m2
16:14 45.2 °F /  7.3 °C 36.7 °F /  2.6 °C 29.80in /  1009hPa Calm     72% 0.00in /  0mm 7 W/m2
16:19 45.1 °F /  7.3 °C 36.6 °F /  2.6 °C 29.80in /  1009hPa Calm     72% 0.00in /  0mm 0 W/m2
16:24 45 °F /  7.2 °C 36.5 °F /  2.5 °C 29.80in /  1009hPa Calm     72% 0.00in /  0mm 0 W/m2
16:29 44.8 °F /  7.1 °C 36.6 °F /  2.6 °C 29.80in /  1009hPa Calm     72.6% 0.00in /  0mm 0 W/m2
16:34 44.6 °F /  7 °C 36.5 °F /  2.5 °C 29.81in /  1009.4hPa Calm     73% 0.00in /  0mm 0 W/m2
16:39 44.5 °F /  6.9 °C 36.6 °F /  2.6 °C 29.81in /  1009.4hPa Calm     73.6% 0.00in /  0mm 0 W/m2
16:44 44.4 °F /  6.9 °C 36.6 °F /  2.6 °C 29.83in /  1010hPa Calm     74% 0.00in /  0mm 0 W/m2
16:49 44.2 °F /  6.8 °C 36.5 °F /  2.5 °C 29.83in /  1010hPa Calm     74% 0.00in /  0mm 0 W/m2
16:54 44.1 °F /  6.7 °C 36.5 °F /  2.5 °C 29.84in /  1010.4hPa Calm     74.3% 0.00in /  0mm 0 W/m2
16:59 44 °F /  6.7 °C 36.6 °F /  2.6 °C 29.85in /  1010.7hPa Calm     75% 0.00in /  0mm 0 W/m2
17:04 43.9 °F /  6.6 °C 36.5 °F /  2.5 °C 29.86in /  1011.1hPa Calm     75% 0.00in /  0mm 0 W/m2
17:09 43.8 °F /  6.6 °C 36.5 °F /  2.5 °C 29.86in /  1011.1hPa Calm     75.2% 0.00in /  0mm 0 W/m2
17:14 43.8 °F /  6.6 °C 36.7 °F /  2.6 °C 29.87in /  1011.4hPa Calm     76% 0.00in /  0mm 0 W/m2
17:19 43.7 °F /  6.5 °C 36.7 °F /  2.6 °C 29.87in /  1011.4hPa Calm   2mph /  3.2km/h 76% 0.00in /  0mm 0 W/m2
17:24 43.6 °F /  6.4 °C 36.6 °F /  2.6 °C 29.88in /  1011.7hPa Calm   2mph /  3.2km/h 76% 0.00in /  0mm 0 W/m2
17:29 43.6 °F /  6.4 °C 36.5 °F /  2.5 °C 29.87in /  1011.4hPa West 0.2mph /  0.3km/h 3mph /  4.8km/h 76% 0.00in /  0mm 0 W/m2
17:34 43.5 °F /  6.4 °C 36.4 °F /  2.4 °C 29.87in /  1011.4hPa Calm   3mph /  4.8km/h 75.7% 0.00in /  0mm 0 W/m2
17:39 43.5 °F /  6.4 °C 36.1 °F /  2.3 °C 29.89in /  1012.1hPa Calm     75% 0.00in /  0mm 0 W/m2
17:44 43.5 °F /  6.4 °C 36.1 °F /  2.3 °C 29.89in /  1012.1hPa Calm     75% 0.00in /  0mm 0 W/m2
17:49 43.4 °F /  6.3 °C 36 °F /  2.2 °C 29.89in /  1012.1hPa West 0.1mph /  0.2km/h 2mph /  3.2km/h 75% 0.00in /  0mm 0 W/m2
17:54 43.4 °F /  6.3 °C 36 °F /  2.2 °C 29.89in /  1012.1hPa Calm   2mph /  3.2km/h 75% 0.00in /  0mm 0 W/m2
17:59 43.4 °F /  6.3 °C 36 °F /  2.2 °C 29.88in /  1011.7hPa Calm   2mph /  3.2km/h 75% 0.00in /  0mm 0 W/m2
18:04 43.4 °F /  6.3 °C 36 °F /  2.2 °C 29.88in /  1011.7hPa Calm   2mph /  3.2km/h 75% 0.00in /  0mm 0 W/m2
18:09 43.4 °F /  6.3 °C 36 °F /  2.2 °C 29.88in /  1011.7hPa Calm     75% 0.00in /  0mm 0 W/m2
18:14 43.4 °F /  6.3 °C 36 °F /  2.2 °C 29.88in /  1011.7hPa Calm     75% 0.00in /  0mm 0 W/m2
18:19 43.3 °F /  6.3 °C 35.9 °F /  2.2 °C 29.88in /  1011.7hPa Calm     75% 0.00in /  0mm 0 W/m2
18:24 43.2 °F /  6.2 °C 35.9 °F /  2.2 °C 29.87in /  1011.4hPa Calm     75% 0.00in /  0mm 0 W/m2
18:29 43.2 °F /  6.2 °C 35.8 °F /  2.1 °C 29.86in /  1011.1hPa Calm     75% 0.00in /  0mm 0 W/m2
18:34 43.1 °F /  6.2 °C 35.7 °F /  2.1 °C 29.86in /  1011.1hPa West 0.8mph /  1.3km/h 4mph /  6.4km/h 74.9% 0.00in /  0mm 0 W/m2
18:39 43 °F /  6.1 °C 35.3 °F /  1.8 °C 29.87in /  1011.4hPa Calm   4mph /  6.4km/h 74% 0.00in /  0mm 0 W/m2
18:44 43 °F /  6.1 °C 35.6 °F /  2 °C 29.87in /  1011.4hPa Calm   4mph /  6.4km/h 74.9% 0.00in /  0mm 0 W/m2
18:49 43 °F /  6.1 °C 35.9 °F /  2.2 °C 29.88in /  1011.7hPa Calm   4mph /  6.4km/h 76% 0.00in /  0mm 0 W/m2
18:54 42.9 °F /  6.1 °C 35.9 °F /  2.2 °C 29.88in /  1011.7hPa Calm   4mph /  6.4km/h 76% 0.00in /  0mm 0 W/m2
18:59 42.8 °F /  6 °C 35.7 °F /  2.1 °C 29.88in /  1011.7hPa West 0.1mph /  0.2km/h 4mph /  6.4km/h 76% 0.00in /  0mm 0 W/m2
19:04 42.7 °F /  5.9 °C 35.5 °F /  1.9 °C 29.88in /  1011.7hPa West 0.1mph /  0.2km/h 4mph /  6.4km/h 75.5% 0.00in /  0mm 0 W/m2
19:09 42.6 °F /  5.9 °C 35.2 °F /  1.8 °C 29.88in /  1011.7hPa West 0.4mph /  0.6km/h 3mph /  4.8km/h 74.7% 0.00in /  0mm 0 W/m2
19:14 42.7 °F /  5.9 °C 35 °F /  1.7 °C 29.87in /  1011.4hPa Calm   3mph /  4.8km/h 74% 0.00in /  0mm 0 W/m2
19:19 42.7 °F /  5.9 °C 34.9 °F /  1.6 °C 29.87in /  1011.4hPa West 0.9mph /  1.4km/h 5mph /  8km/h 73.8% 0.00in /  0mm 0 W/m2
19:24 42.7 °F /  5.9 °C 34.5 °F /  1.4 °C 29.87in /  1011.4hPa West 0.3mph /  0.5km/h 5mph /  8km/h 72.6% 0.00in /  0mm 0 W/m2
19:29 42.7 °F /  5.9 °C 34.3 °F /  1.3 °C 29.88in /  1011.7hPa West 1.4mph /  2.3km/h 5mph /  8km/h 72% 0.00in /  0mm 0 W/m2
19:34 42.8 °F /  6 °C 34.3 °F /  1.3 °C 29.89in /  1012.1hPa West 0.1mph /  0.2km/h 5mph /  8km/h 71.8% 0.00in /  0mm 0 W/m2
19:39 42.9 °F /  6.1 °C 34.4 °F /  1.3 °C 29.88in /  1011.7hPa West 0.7mph /  1.1km/h 4mph /  6.4km/h 71.7% 0.00in /  0mm 0 W/m2
19:44 42.8 °F /  6 °C 34.2 °F /  1.2 °C 29.88in /  1011.7hPa WNW 0.8mph /  1.3km/h 4mph /  6.4km/h 71.4% 0.00in /  0mm 0 W/m2
19:49 42.8 °F /  6 °C 34.1 °F /  1.2 °C 29.88in /  1011.7hPa WNW 0.7mph /  1.1km/h 4mph /  6.4km/h 71% 0.00in /  0mm 0 W/m2
19:54 42.8 °F /  6 °C 34.1 °F /  1.2 °C 29.88in /  1011.7hPa WNW 0.4mph /  0.6km/h 4mph /  6.4km/h 71% 0.00in /  0mm 0 W/m2
19:59 42.8 °F /  6 °C 34.1 °F /  1.2 °C 29.87in /  1011.4hPa NW 0.9mph /  1.4km/h 4mph /  6.4km/h 71% 0.00in /  0mm 0 W/m2
20:00 42.8 °F /  6 °C 34.1 °F /  1.2 °C 29.86in /  1011.1hPa Calm   4mph /  6.4km/h 71% 0.00in /  0mm 0 W/m2
20:09 42.8 °F /  6 °C 34.1 °F /  1.2 °C 29.84in /  1010.4hPa Calm     71% 0.00in /  0mm 0 W/m2
20:14 42.8 °F /  6 °C 34.3 °F /  1.3 °C 29.84in /  1010.4hPa Calm   1mph /  1.6km/h 71.6% 0.00in /  0mm 0 W/m2
20:19 42.8 °F /  6 °C 34.6 °F /  1.4 °C 29.84in /  1010.4hPa Calm   1mph /  1.6km/h 72.7% 0.00in /  0mm 0 W/m2
20:24 42.7 °F /  5.9 °C 34.3 °F /  1.3 °C 29.84in /  1010.4hPa Calm   1mph /  1.6km/h 72% 0.00in /  0mm 0 W/m2
20:29 42.7 °F /  5.9 °C 34.3 °F /  1.3 °C 29.84in /  1010.4hPa NW 0.1mph /  0.2km/h 2mph /  3.2km/h 72% 0.00in /  0mm 0 W/m2
20:34 42.6 °F /  5.9 °C 34.2 °F /  1.2 °C 29.84in /  1010.4hPa Calm   2mph /  3.2km/h 72% 0.00in /  0mm 0 W/m2
20:39 42.6 °F /  5.9 °C 34.5 °F /  1.4 °C 29.83in /  1010hPa Calm     72.8% 0.00in /  0mm 0 W/m2
20:44 42.5 °F /  5.8 °C 34.5 °F /  1.4 °C 29.83in /  1010hPa NW 0.1mph /  0.2km/h 3mph /  4.8km/h 73% 0.00in /  0mm 0 W/m2
20:49 42.5 °F /  5.8 °C 34.5 °F /  1.4 °C 29.83in /  1010hPa Calm   3mph /  4.8km/h 73% 0.00in /  0mm 0 W/m2
20:54 42.4 °F /  5.8 °C 34.4 °F /  1.3 °C 29.83in /  1010hPa NW 1.1mph /  1.8km/h 7mph /  11.3km/h 73% 0.00in /  0mm 0 W/m2
20:59 42.4 °F /  5.8 °C 34.6 °F /  1.4 °C 29.83in /  1010hPa NNW 1.1mph /  1.8km/h 7mph /  11.3km/h 73.7% 0.00in /  0mm 0 W/m2
21:04 42.2 °F /  5.7 °C 35 °F /  1.7 °C 29.84in /  1010.4hPa North 1.3mph /  2.1km/h 7mph /  11.3km/h 75.5% 0.00in /  0mm 0 W/m2
21:09 42 °F /  5.6 °C 35.2 °F /  1.8 °C 29.85in /  1010.7hPa NNW 2.5mph /  4km/h 10mph /  16.1km/h 76.6% 0.00in /  0mm 0 W/m2
21:14 41.7 °F /  5.4 °C 35.1 °F /  1.7 °C 29.85in /  1010.7hPa North 3.3mph /  5.3km/h 10mph /  16.1km/h 77.4% 0.00in /  0mm 0 W/m2
21:19 41.3 °F /  5.2 °C 35 °F /  1.7 °C 29.87in /  1011.4hPa North 1.6mph /  2.6km/h 12mph /  19.3km/h 78.1% 0.01in /  0.25mm 0 W/m2
21:24 41 °F /  5 °C 35.2 °F /  1.8 °C 29.87in /  1011.4hPa NNE 3.1mph /  5km/h 12mph /  19.3km/h 79.5% 0.01in /  0.25mm 0 W/m2
21:29 40.7 °F /  4.8 °C 35.2 °F /  1.8 °C 29.87in /  1011.4hPa NW 0.7mph /  1.1km/h 12mph /  19.3km/h 80.6% 0.01in /  0.25mm 0 W/m2
21:34 40.5 °F /  4.7 °C 35.4 °F /  1.9 °C 29.86in /  1011.1hPa NW 0.4mph /  0.6km/h 12mph /  19.3km/h 81.9% 0.01in /  0.25mm 0 W/m2
21:39 40.3 °F /  4.6 °C 35.5 °F /  1.9 °C 29.87in /  1011.4hPa NW 1.2mph /  1.9km/h 5mph /  8km/h 82.9% 0.01in /  0.25mm 0 W/m2
21:44 40 °F /  4.4 °C 35.4 °F /  1.9 °C 29.87in /  1011.4hPa Calm   5mph /  8km/h 83.6% 0.01in /  0.25mm 0 W/m2
21:49 39.8 °F /  4.3 °C 35.3 °F /  1.8 °C 29.87in /  1011.4hPa Calm   5mph /  8km/h 84% 0.01in /  0.25mm 0 W/m2
21:54 39.6 °F /  4.2 °C 35.4 °F /  1.9 °C 29.87in /  1011.4hPa Calm   5mph /  8km/h 84.8% 0.01in /  0.25mm 0 W/m2
21:59 39.4 °F /  4.1 °C 35.3 °F /  1.8 °C 29.87in /  1011.4hPa Calm   5mph /  8km/h 85% 0.01in /  0.25mm 0 W/m2
22:04 39.3 °F /  4.1 °C 35.4 °F /  1.9 °C 29.85in /  1010.7hPa Calm   5mph /  8km/h 85.9% 0.02in /  0.51mm 0 W/m2
22:09 39.1 °F /  3.9 °C 35.3 °F /  1.8 °C 29.86in /  1011.1hPa Calm     86.1% 0.02in /  0.51mm 0 W/m2
22:14 38.9 °F /  3.8 °C 35.4 °F /  1.9 °C 29.85in /  1010.7hPa Calm     87.1% 0.02in /  0.51mm 0 W/m2
22:19 38.8 °F /  3.8 °C 35.5 °F /  1.9 °C 29.85in /  1010.7hPa Calm     88% 0.02in /  0.51mm 0 W/m2
22:24 38.7 °F /  3.7 °C 35.5 °F /  1.9 °C 29.84in /  1010.4hPa Calm     88% 0.02in /  0.51mm 0 W/m2
22:29 38.6 °F /  3.7 °C 35.5 °F /  1.9 °C 29.84in /  1010.4hPa Calm     88.4% 0.02in /  0.51mm 0 W/m2
22:34 38.6 °F /  3.7 °C 35.6 °F /  2 °C 29.84in /  1010.4hPa NW 0.4mph /  0.6km/h 2mph /  3.2km/h 89% 0.02in /  0.51mm 0 W/m2
22:39 38.6 °F /  3.7 °C 35.7 °F /  2.1 °C 29.85in /  1010.7hPa Calm   2mph /  3.2km/h 89.3% 0.01in /  0.25mm 0 W/m2
22:44 38.6 °F /  3.7 °C 35.9 °F /  2.2 °C 29.85in /  1010.7hPa Calm   2mph /  3.2km/h 90% 0.02in /  0.51mm 0 W/m2
22:49 38.6 °F /  3.7 °C 35.9 °F /  2.2 °C 29.85in /  1010.7hPa Calm   2mph /  3.2km/h 90% 0.03in /  0.76mm 0 W/m2
22:54 38.6 °F /  3.7 °C 35.9 °F /  2.2 °C 29.85in /  1010.7hPa Calm   2mph /  3.2km/h 90% 0.03in /  0.76mm 0 W/m2
22:59 38.6 °F /  3.7 °C 35.9 °F /  2.2 °C 29.85in /  1010.7hPa Calm   2mph /  3.2km/h 90% 0.03in /  0.76mm 0 W/m2
23:00 38.5 °F /  3.6 °C 35.8 °F /  2.1 °C 29.85in /  1010.7hPa Calm   2mph /  3.2km/h 90% 0.03in /  0.76mm 0 W/m2
23:09 38.4 °F /  3.6 °C 36 °F /  2.2 °C 29.86in /  1011.1hPa Calm     91% 0.03in /  0.76mm 0 W/m2
23:14 38.4 °F /  3.6 °C 36 °F /  2.2 °C 29.86in /  1011.1hPa Calm     91% 0.03in /  0.76mm 0 W/m2
23:19 38.3 °F /  3.5 °C 35.9 °F /  2.2 °C 29.86in /  1011.1hPa Calm     91% 0.03in /  0.76mm 0 W/m2
23:24 38.3 °F /  3.5 °C 35.9 °F /  2.2 °C 29.85in /  1010.7hPa Calm     91% 0.03in /  0.76mm 0 W/m2
23:29 38.2 °F /  3.4 °C 35.8 °F /  2.1 °C 29.85in /  1010.7hPa Calm     91% 0.03in /  0.76mm 0 W/m2
23:34 38.1 °F /  3.4 °C 35.8 °F /  2.1 °C 29.85in /  1010.7hPa Calm     91.3% 0.03in /  0.76mm 0 W/m2
23:39 38.1 °F /  3.4 °C 36 °F /  2.2 °C 29.85in /  1010.7hPa Calm     92% 0.03in /  0.76mm 0 W/m2
23:44 38 °F /  3.3 °C 35.9 °F /  2.2 °C 29.84in /  1010.4hPa Calm     92% 0.03in /  0.76mm 0 W/m2
23:49 38 °F /  3.3 °C 35.9 °F /  2.2 °C 29.84in /  1010.4hPa Calm     92% 0.03in /  0.76mm 0 W/m2
23:54 38 °F /  3.3 °C 35.9 °F /  2.2 °C 29.84in /  1010.4hPa Calm     92% 0.03in /  0.76mm 0 W/m2
23:59 38 °F /  3.3 °C 35.9 °F /  2.2 °C 29.85in /  1010.7hPa Calm     92% 0.03in /  0.76mm 0 W/m2
Hartford County Weather
Compliments of Weather Underground - 2 mb